createdAt,value
2024-03-12T00:01:27.864Z,1.20
2024-03-12T00:03:56.143Z,1.58
2024-03-12T00:06:23.742Z,1.27
2024-03-12T00:11:17.530Z,1.58
2024-03-12T00:13:44.369Z,1.73
2024-03-12T00:16:11.245Z,2.22
2024-03-12T00:18:39.792Z,2.35
2024-03-12T00:21:06.779Z,3.00
2024-03-12T00:23:33.571Z,3.50
2024-03-12T00:26:01.316Z,3.15
2024-03-12T00:28:28.058Z,3.00
2024-03-12T00:30:55.488Z,2.47
2024-03-12T00:33:22.831Z,4.20
2024-03-12T00:35:49.650Z,6.90
2024-03-12T00:38:18.863Z,2.83
2024-03-12T00:40:45.791Z,2.65
2024-03-12T00:43:13.129Z,2.25
2024-03-12T00:45:40.720Z,2.40
2024-03-12T00:48:14.158Z,2.30
2024-03-12T00:50:43.549Z,2.58
2024-03-12T00:53:38.694Z,2.28
2024-03-12T00:56:05.523Z,2.72
2024-03-12T00:58:34.421Z,2.40
2024-03-12T01:01:01.794Z,2.60
2024-03-12T01:05:55.470Z,1.65
2024-03-12T01:08:22.227Z,1.25
2024-03-12T01:10:49.158Z,1.67
2024-03-12T01:13:16.636Z,1.52
2024-03-12T01:15:43.431Z,1.30
2024-03-12T01:18:10.728Z,1.10
2024-03-12T01:23:06.370Z,1.13
2024-03-12T01:25:36.204Z,0.90
2024-03-12T01:28:03.722Z,1.00
2024-03-12T01:32:59.373Z,1.88
2024-03-12T01:35:26.563Z,1.33
2024-03-12T01:37:54.254Z,1.50
2024-03-12T01:40:23.565Z,1.50
2024-03-12T01:43:02.357Z,1.58
2024-03-12T01:45:30.125Z,1.83
2024-03-12T01:47:58.525Z,2.42
2024-03-12T01:50:27.327Z,2.70
2024-03-12T01:53:02.700Z,1.80
2024-03-12T01:55:29.481Z,2.30
2024-03-12T01:57:56.312Z,1.90
2024-03-12T02:00:23.341Z,2.95
2024-03-12T02:02:53.794Z,2.53
2024-03-12T02:05:21.498Z,2.10
2024-03-12T02:07:53.022Z,2.00
2024-03-12T02:10:20.533Z,1.73
2024-03-12T02:12:48.043Z,1.30
2024-03-12T02:15:19.129Z,1.30
2024-03-12T02:17:46.675Z,1.83
2024-03-12T02:20:14.219Z,2.13
2024-03-12T02:22:41.374Z,2.28
2024-03-12T02:25:12.065Z,2.08
2024-03-12T02:27:41.106Z,2.15
2024-03-12T02:30:09.711Z,1.48
2024-03-12T02:32:37.237Z,1.27
2024-03-12T02:37:30.861Z,1.70
2024-03-12T02:39:57.697Z,1.63
2024-03-12T02:42:24.572Z,1.50
2024-03-12T02:44:51.464Z,1.70
2024-03-12T02:47:21.714Z,1.58
2024-03-12T02:49:48.748Z,1.90
2024-03-12T02:52:15.511Z,2.80
2024-03-12T02:54:42.972Z,2.75
2024-03-12T02:57:12.545Z,3.33
2024-03-12T02:59:39.472Z,2.78
2024-03-12T03:02:06.453Z,3.08
2024-03-12T03:04:38.220Z,3.10
2024-03-12T03:07:05.530Z,2.90
2024-03-12T03:09:32.620Z,3.28
2024-03-12T03:12:00.789Z,2.70
2024-03-12T03:14:27.606Z,2.72
2024-03-12T03:16:55.445Z,3.03
2024-03-12T03:19:24.000Z,2.58
2024-03-12T03:21:50.863Z,2.40
2024-03-12T03:24:17.908Z,2.90
2024-03-12T03:26:44.756Z,2.90
2024-03-12T03:29:12.477Z,2.50
2024-03-12T03:31:39.541Z,2.63
2024-03-12T03:34:06.440Z,5.10
2024-03-12T03:36:33.561Z,2.80
2024-03-12T03:39:01.749Z,3.08
2024-03-12T03:41:31.040Z,2.60
2024-03-12T03:43:58.239Z,2.17
2024-03-12T03:46:25.740Z,2.75
2024-03-12T03:48:52.562Z,2.83
2024-03-12T03:51:19.341Z,2.55
2024-03-12T03:53:46.627Z,2.80
2024-03-12T03:56:16.917Z,3.35
2024-03-12T03:58:46.691Z,3.25
2024-03-12T04:01:14.731Z,2.95
2024-03-12T04:03:42.575Z,3.33
2024-03-12T04:06:09.487Z,3.67
2024-03-12T04:08:36.981Z,2.78
2024-03-12T04:13:33.469Z,2.90
2024-03-12T04:16:00.950Z,2.95
2024-03-12T04:18:29.849Z,2.90
2024-03-12T04:20:57.148Z,3.13
2024-03-12T04:23:24.228Z,3.75
2024-03-12T04:25:51.460Z,3.38
2024-03-12T04:28:20.933Z,3.45
2024-03-12T04:30:50.131Z,3.65
2024-03-12T04:33:18.831Z,3.38
2024-03-12T04:35:46.150Z,3.22
2024-03-12T04:38:17.378Z,3.50
2024-03-12T04:40:44.969Z,3.47
2024-03-12T04:45:42.190Z,3.35
2024-03-12T04:48:09.681Z,3.20
2024-03-12T04:50:36.662Z,3.30
2024-03-12T04:53:03.411Z,3.38
2024-03-12T04:55:30.168Z,3.40
2024-03-12T04:57:57.037Z,3.15
2024-03-12T05:00:24.267Z,3.22
2024-03-12T05:02:51.065Z,3.55
2024-03-12T05:05:22.425Z,3.10
2024-03-12T05:07:49.681Z,3.35
2024-03-12T05:10:17.401Z,3.80
2024-03-12T05:12:45.103Z,3.72
2024-03-12T05:15:11.997Z,3.47
2024-03-12T05:17:40.652Z,3.80
2024-03-12T05:20:11.268Z,4.43
2024-03-12T05:22:38.178Z,5.45
2024-03-12T05:25:10.302Z,5.20
2024-03-12T05:27:39.328Z,4.03
2024-03-12T05:30:11.608Z,4.35
2024-03-12T05:32:42.312Z,6.55
2024-03-12T05:35:18.404Z,6.93
2024-03-12T05:38:05.060Z,6.18
2024-03-12T05:41:06.561Z,6.57
2024-03-12T05:43:52.016Z,6.47
2024-03-12T05:46:37.705Z,6.45
2024-03-12T05:49:05.190Z,5.88
2024-03-12T05:51:33.507Z,6.50
2024-03-12T05:54:00.250Z,6.25
2024-03-12T05:56:27.671Z,6.25
2024-03-12T05:58:54.448Z,6.07
2024-03-12T06:01:22.280Z,6.10
2024-03-12T06:03:51.026Z,6.47
2024-03-12T06:06:20.823Z,6.13
2024-03-12T06:08:47.643Z,7.00
2024-03-12T06:11:15.686Z,7.45
2024-03-12T06:13:43.979Z,6.63
2024-03-12T06:16:10.949Z,6.97
2024-03-12T06:18:37.844Z,6.78
2024-03-12T06:21:06.339Z,5.85
2024-03-12T06:23:33.169Z,5.15
2024-03-12T06:25:59.974Z,5.50
2024-03-12T06:30:57.138Z,5.82
2024-03-12T06:33:24.077Z,6.70
2024-03-12T06:35:50.839Z,5.63
2024-03-12T06:38:21.400Z,5.93
2024-03-12T06:40:49.419Z,6.40
2024-03-12T06:43:18.762Z,6.45
2024-03-12T06:45:46.121Z,6.10
2024-03-12T06:50:40.908Z,6.67
2024-03-12T06:53:07.669Z,5.90
2024-03-12T06:55:34.480Z,6.20
2024-03-12T06:58:03.944Z,5.65
2024-03-12T07:00:38.490Z,5.95
2024-03-12T07:03:06.116Z,6.00
2024-03-12T07:08:08.757Z,5.80
2024-03-12T07:10:38.235Z,5.70
2024-03-12T07:13:08.390Z,5.68
2024-03-12T07:15:46.332Z,6.47
2024-03-12T07:18:15.370Z,6.63
2024-03-12T07:20:42.301Z,6.88
2024-03-12T07:23:09.874Z,6.70
2024-03-12T07:25:36.921Z,6.15
2024-03-12T07:28:07.846Z,6.47
2024-03-12T07:30:36.531Z,6.90
2024-03-12T07:33:04.407Z,6.68
2024-03-12T07:35:31.637Z,6.88
2024-03-12T07:37:58.353Z,6.70
2024-03-12T07:40:25.098Z,7.20
2024-03-12T07:42:51.925Z,7.20
2024-03-12T07:45:18.919Z,6.90
2024-03-12T07:47:45.693Z,5.90
2024-03-12T07:50:17.013Z,5.93
2024-03-12T07:52:43.855Z,7.00
2024-03-12T07:55:11.567Z,6.28
2024-03-12T07:57:39.205Z,5.63
2024-03-12T08:00:06.692Z,5.60
2024-03-12T08:02:33.460Z,6.72
2024-03-12T08:05:00.296Z,5.97
2024-03-12T08:07:27.071Z,6.50
2024-03-12T08:09:53.889Z,6.90
2024-03-12T08:12:21.196Z,6.47
2024-03-12T08:17:15.126Z,5.55
2024-03-12T08:19:44.144Z,6.47
2024-03-12T08:22:11.896Z,6.68
2024-03-12T08:24:39.226Z,5.88
2024-03-12T08:27:06.579Z,5.53
2024-03-12T08:32:01.504Z,5.72
2024-03-12T08:34:28.689Z,5.90
2024-03-12T08:36:56.744Z,5.55
2024-03-12T08:39:23.789Z,5.30
2024-03-12T08:41:50.599Z,5.70
2024-03-12T08:44:17.632Z,5.03
2024-03-12T08:46:44.787Z,5.47
2024-03-12T08:49:14.262Z,5.90
2024-03-12T08:51:41.551Z,6.22
2024-03-12T08:54:10.048Z,4.82
2024-03-12T08:56:37.329Z,4.55
2024-03-12T09:04:08.866Z,4.85
2024-03-12T09:06:36.273Z,5.80
2024-03-12T09:11:30.218Z,4.65
2024-03-12T09:13:56.977Z,4.95
2024-03-12T09:16:23.750Z,4.30
2024-03-12T09:18:50.619Z,4.35
2024-03-12T09:21:19.578Z,4.30
2024-03-12T09:23:53.471Z,3.92
2024-03-12T09:26:29.217Z,4.40
2024-03-12T09:28:56.473Z,4.20
2024-03-12T09:31:23.382Z,4.60
2024-03-12T09:33:52.826Z,6.40
2024-03-12T09:36:21.262Z,5.03
2024-03-12T09:38:54.686Z,4.20
2024-03-12T09:41:24.968Z,4.38
2024-03-12T09:43:54.570Z,3.78
2024-03-12T09:46:22.611Z,4.00
2024-03-12T09:48:52.579Z,4.55
2024-03-12T09:51:22.096Z,3.70
2024-03-12T09:53:49.625Z,3.20
2024-03-12T09:56:18.706Z,2.88
2024-03-12T09:58:45.870Z,3.45
2024-03-12T10:01:13.711Z,2.10
2024-03-12T10:03:41.542Z,2.22
2024-03-12T10:06:10.247Z,2.20
2024-03-12T10:08:37.113Z,1.80
2024-03-12T10:11:09.416Z,1.70
2024-03-12T10:13:39.833Z,1.60
2024-03-12T10:16:08.340Z,1.38
2024-03-12T10:18:36.203Z,1.00
2024-03-12T10:21:03.921Z,1.10
2024-03-12T10:23:37.603Z,0.95
2024-03-12T10:26:10.723Z,0.88
2024-03-12T10:28:41.304Z,1.02
2024-03-12T10:31:11.532Z,1.10
2024-03-12T10:33:43.384Z,0.90
2024-03-12T10:36:12.080Z,1.65
2024-03-12T10:38:41.181Z,1.08
2024-03-12T10:41:22.866Z,0.90
2024-03-12T10:43:56.301Z,1.65
2024-03-12T10:46:25.247Z,1.00
2024-03-12T10:48:52.948Z,2.10
2024-03-12T10:51:20.406Z,1.55
2024-03-12T10:53:54.360Z,0.90
2024-03-12T10:56:21.389Z,1.38
2024-03-12T10:58:49.308Z,1.02
2024-03-12T11:01:18.488Z,1.23
2024-03-12T11:03:45.980Z,1.42
2024-03-12T11:06:16.598Z,2.47
2024-03-12T11:08:44.876Z,2.08
2024-03-12T11:11:11.894Z,1.90
2024-03-12T11:13:39.340Z,1.10
2024-03-12T11:16:14.833Z,1.30
2024-03-12T11:18:42.114Z,0.90
2024-03-12T11:21:31.547Z,1.35
2024-03-12T11:23:58.826Z,0.98
2024-03-12T11:29:01.220Z,1.00
2024-03-12T11:31:40.861Z,0.75
2024-03-12T11:34:08.565Z,0.57
2024-03-12T11:36:41.413Z,0.80
2024-03-12T11:39:13.299Z,0.90
2024-03-12T11:41:58.814Z,0.60
2024-03-12T11:44:53.664Z,0.70
2024-03-12T11:47:43.866Z,0.45
2024-03-12T11:50:30.362Z,0.43
2024-03-12T11:53:18.775Z,0.70
2024-03-12T11:58:50.538Z,0.60
2024-03-12T12:01:20.171Z,0.60
2024-03-12T12:03:51.584Z,0.60
2024-03-12T12:06:20.779Z,0.88
2024-03-12T12:08:56.714Z,0.80
2024-03-12T12:11:26.989Z,1.45
2024-03-12T12:13:56.297Z,1.10
2024-03-12T12:16:23.166Z,1.30
2024-03-12T12:18:50.319Z,0.90
2024-03-12T12:21:18.906Z,0.93
2024-03-12T12:23:47.885Z,0.80
2024-03-12T12:26:20.108Z,1.00
2024-03-12T12:28:47.859Z,0.95
2024-03-12T12:31:17.733Z,1.30
2024-03-12T12:33:49.450Z,1.30
2024-03-12T12:36:20.102Z,1.55
2024-03-12T12:38:52.159Z,1.20
2024-03-12T12:41:25.630Z,1.10
2024-03-12T12:43:55.760Z,2.05
2024-03-12T12:46:29.091Z,1.70
2024-03-12T12:48:55.960Z,1.50
2024-03-12T12:51:26.016Z,1.38
2024-03-12T12:53:56.361Z,1.30
2024-03-12T12:56:23.914Z,2.60
2024-03-12T12:58:52.745Z,2.05
2024-03-12T13:01:25.705Z,0.90
2024-03-12T13:03:54.967Z,0.90
2024-03-12T13:06:23.337Z,1.35
2024-03-12T13:08:57.751Z,1.00
2024-03-12T13:11:30.072Z,0.90
2024-03-12T13:13:56.855Z,1.17
2024-03-12T13:16:24.991Z,1.20
2024-03-12T13:18:58.994Z,1.27
2024-03-12T13:21:26.787Z,0.85
2024-03-12T13:23:54.446Z,1.10
2024-03-12T13:26:23.896Z,0.90
2024-03-12T13:28:58.044Z,1.23
2024-03-12T13:31:25.071Z,1.35
2024-03-12T13:33:54.614Z,0.90
2024-03-12T13:36:23.306Z,0.98
2024-03-12T13:38:56.876Z,1.35
2024-03-12T13:41:25.915Z,1.13
2024-03-12T13:43:53.402Z,1.30
2024-03-12T13:48:48.112Z,1.30
2024-03-12T13:53:43.248Z,1.50
2024-03-12T13:56:12.762Z,1.33
2024-03-12T13:58:41.806Z,1.23
2024-03-12T14:01:12.735Z,0.80
2024-03-12T14:03:41.265Z,0.60
2024-03-12T14:06:10.291Z,0.50
2024-03-12T14:08:37.529Z,0.60
2024-03-12T14:11:04.716Z,0.90
2024-03-12T14:13:32.997Z,0.65
2024-03-12T14:16:00.356Z,1.00
2024-03-12T14:20:55.879Z,1.60
2024-03-12T14:23:23.100Z,1.35
2024-03-12T14:25:50.342Z,1.50
2024-03-12T14:30:45.956Z,1.17
2024-03-12T14:33:13.364Z,1.38
2024-03-12T14:38:07.318Z,0.90
2024-03-12T14:40:34.153Z,1.38
2024-03-12T14:43:01.729Z,0.80
2024-03-12T14:45:30.837Z,0.80
2024-03-12T14:47:57.965Z,0.80
2024-03-12T14:50:25.001Z,1.00
2024-03-12T14:52:52.021Z,1.40
2024-03-12T14:55:18.976Z,1.30
2024-03-12T14:57:45.833Z,1.30
2024-03-12T15:00:17.506Z,1.38
2024-03-12T15:02:44.417Z,1.60
2024-03-12T15:05:13.991Z,1.80
2024-03-12T15:07:44.236Z,1.85
2024-03-12T15:10:11.946Z,1.40
2024-03-12T15:12:42.629Z,1.27
2024-03-12T15:15:13.821Z,1.10
2024-03-12T15:17:42.228Z,1.27
2024-03-12T15:20:17.188Z,1.20
2024-03-12T15:22:46.580Z,1.00
2024-03-12T15:25:14.205Z,1.20
2024-03-12T15:27:43.083Z,1.00
2024-03-12T15:30:10.921Z,1.05
2024-03-12T15:32:39.319Z,1.45
2024-03-12T15:35:07.196Z,0.73
2024-03-12T15:37:34.055Z,0.80
2024-03-12T15:40:01.384Z,0.80
2024-03-12T15:42:29.266Z,1.23
2024-03-12T15:44:56.786Z,1.40
2024-03-12T15:47:23.904Z,1.38
2024-03-12T15:49:55.681Z,1.52
2024-03-12T15:52:22.511Z,2.40
2024-03-12T15:54:50.162Z,1.45
2024-03-12T15:57:18.343Z,1.90
2024-03-12T15:59:49.331Z,1.77
2024-03-12T16:02:16.547Z,1.45
2024-03-12T16:04:43.583Z,1.42
2024-03-12T16:07:10.405Z,1.65
2024-03-12T16:09:37.355Z,1.83
2024-03-12T16:12:06.234Z,1.52
2024-03-12T16:14:33.294Z,1.75
2024-03-12T16:17:00.113Z,1.75
2024-03-12T16:19:31.048Z,1.52
2024-03-12T16:21:58.643Z,2.08
2024-03-12T16:24:28.590Z,1.92
2024-03-12T16:26:57.364Z,1.88
2024-03-12T16:29:25.002Z,1.95
2024-03-12T16:31:52.289Z,1.95
2024-03-12T16:34:19.646Z,2.15
2024-03-12T16:36:46.655Z,2.05
2024-03-12T16:39:14.408Z,2.38
2024-03-12T16:41:42.039Z,2.33
2024-03-12T16:44:08.906Z,2.60
2024-03-12T16:46:35.737Z,2.83
2024-03-12T16:49:04.823Z,2.80
2024-03-12T16:51:35.059Z,2.72
2024-03-12T16:54:03.375Z,2.90
2024-03-12T16:56:33.553Z,2.63
2024-03-12T16:59:01.441Z,2.65
2024-03-12T17:01:29.043Z,3.17
2024-03-12T17:03:56.294Z,3.13
2024-03-12T17:06:23.424Z,3.85
2024-03-12T17:08:50.524Z,3.58
2024-03-12T17:11:17.599Z,3.08
2024-03-12T17:13:44.561Z,4.10
2024-03-12T17:16:14.109Z,4.60
2024-03-12T17:18:41.814Z,4.43
2024-03-12T17:21:10.912Z,3.35
2024-03-12T17:23:37.926Z,3.05
2024-03-12T17:26:05.426Z,3.33
2024-03-12T17:28:34.193Z,2.97
2024-03-12T17:31:01.370Z,2.50
2024-03-12T17:33:28.535Z,2.63
2024-03-12T17:35:56.436Z,2.65
2024-03-12T17:38:26.703Z,2.97
2024-03-12T17:40:59.344Z,3.03
2024-03-12T17:43:27.194Z,2.60
2024-03-12T17:45:54.573Z,2.70
2024-03-12T17:50:48.479Z,3.10
2024-03-12T17:53:17.353Z,2.75
2024-03-12T17:55:47.859Z,2.95
2024-03-12T17:58:17.350Z,2.50
2024-03-12T18:00:45.151Z,3.20
2024-03-12T18:03:12.420Z,3.00
2024-03-12T18:05:39.303Z,3.10
2024-03-12T18:08:10.479Z,3.03
2024-03-12T18:10:38.089Z,3.03
2024-03-12T18:13:05.118Z,3.17
2024-03-12T18:15:31.943Z,3.17
2024-03-12T18:17:59.637Z,3.35
2024-03-12T18:20:31.214Z,3.58
2024-03-12T18:22:58.621Z,2.88
2024-03-12T18:25:25.660Z,4.25
2024-03-12T18:27:56.500Z,5.28
2024-03-12T18:30:23.558Z,6.25
2024-03-12T18:32:50.708Z,5.70
2024-03-12T18:35:19.737Z,5.82
2024-03-12T18:37:46.693Z,6.72
2024-03-12T18:40:18.867Z,6.47
2024-03-12T18:42:47.288Z,5.63
2024-03-12T18:45:18.788Z,5.55
2024-03-12T18:47:48.904Z,7.97
2024-03-12T18:50:16.204Z,7.88
2024-03-12T18:52:45.541Z,8.00
2024-03-12T18:55:13.074Z,8.00
2024-03-12T18:57:41.228Z,7.05
2024-03-12T19:00:18.968Z,7.97
2024-03-12T19:02:51.922Z,8.65
2024-03-12T19:05:22.945Z,7.57
2024-03-12T19:07:51.200Z,6.97
2024-03-12T19:10:19.742Z,5.50
2024-03-12T19:12:47.023Z,5.53
2024-03-12T19:15:22.666Z,4.68
2024-03-12T19:17:51.507Z,4.82
2024-03-12T19:20:19.761Z,4.78
2024-03-12T19:22:51.596Z,4.55
2024-03-12T19:25:20.017Z,4.90
2024-03-12T19:27:49.509Z,4.28
2024-03-12T19:30:20.095Z,3.88
2024-03-12T19:32:53.908Z,3.50
2024-03-12T19:35:22.449Z,4.55
2024-03-12T19:37:50.137Z,4.80
2024-03-12T19:40:17.975Z,3.75
2024-03-12T19:42:46.478Z,4.10
2024-03-12T19:45:18.791Z,4.30
2024-03-12T19:47:50.048Z,4.15
2024-03-12T19:50:21.050Z,3.75
2024-03-12T19:52:48.414Z,4.03
2024-03-12T19:57:56.124Z,3.78
2024-03-12T20:00:31.065Z,3.80
2024-03-12T20:02:58.884Z,7.45
2024-03-12T20:05:26.761Z,7.10
2024-03-12T20:07:55.837Z,5.97
2024-03-12T20:10:23.023Z,5.60
2024-03-12T20:12:53.909Z,4.93
2024-03-12T20:15:24.114Z,5.03
2024-03-12T20:17:51.955Z,5.30
2024-03-12T20:20:19.027Z,5.13
2024-03-12T20:22:52.892Z,4.85
2024-03-12T20:25:21.076Z,4.20
2024-03-12T20:27:58.681Z,4.22
2024-03-12T20:30:30.794Z,4.75
2024-03-12T20:32:59.527Z,4.97
2024-03-12T20:35:28.520Z,4.53
2024-03-12T20:37:56.244Z,4.57
2024-03-12T20:40:26.038Z,4.40
2024-03-12T20:42:53.722Z,4.18
2024-03-12T20:45:22.476Z,4.28
2024-03-12T20:47:49.834Z,5.03
2024-03-12T20:52:47.418Z,4.97
2024-03-12T20:55:17.808Z,4.90
2024-03-12T20:57:48.228Z,5.43
2024-03-12T21:00:24.710Z,4.82
2024-03-12T21:02:54.868Z,4.47
2024-03-12T21:05:22.239Z,4.60
2024-03-12T21:10:16.045Z,4.10
2024-03-12T21:12:52.823Z,3.63
2024-03-12T21:15:20.301Z,3.35
2024-03-12T21:17:47.620Z,3.95
2024-03-12T21:20:22.717Z,4.63
2024-03-12T21:22:50.586Z,3.45
2024-03-12T21:25:18.540Z,3.45
2024-03-12T21:27:46.124Z,3.67
2024-03-12T21:30:15.545Z,3.75
2024-03-12T21:32:42.597Z,3.55
2024-03-12T21:35:10.297Z,4.38
2024-03-12T21:37:40.068Z,3.70
2024-03-12T21:40:12.437Z,3.60
2024-03-12T21:42:40.118Z,2.85
2024-03-12T21:47:34.097Z,2.80
2024-03-12T21:50:01.388Z,3.00
2024-03-12T21:52:28.825Z,3.90
2024-03-12T21:57:23.082Z,3.50
2024-03-12T21:59:49.831Z,3.72
2024-03-12T22:02:16.547Z,4.63
2024-03-12T22:04:43.279Z,5.13
2024-03-12T22:07:10.188Z,5.35
2024-03-12T22:09:37.021Z,5.53
2024-03-12T22:12:04.061Z,5.45
2024-03-12T22:14:30.928Z,6.93
2024-03-12T22:16:57.686Z,6.95
2024-03-12T22:19:24.448Z,8.02
2024-03-12T22:21:51.466Z,7.57
2024-03-12T22:24:19.168Z,5.82
2024-03-12T22:26:53.119Z,5.13
2024-03-12T22:29:19.897Z,4.80
2024-03-12T22:31:46.638Z,3.65
2024-03-12T22:34:14.105Z,4.65
2024-03-12T22:36:41.809Z,4.18
2024-03-12T22:39:09.976Z,9.48
2024-03-12T22:41:37.258Z,6.80
2024-03-12T22:44:05.648Z,4.95
2024-03-12T22:46:32.565Z,5.93
2024-03-12T22:48:59.481Z,6.95
2024-03-12T22:51:27.430Z,6.40
2024-03-12T22:53:54.405Z,5.03
2024-03-12T22:56:21.557Z,3.60
2024-03-12T22:58:48.809Z,3.63
2024-03-12T23:01:17.849Z,3.47
2024-03-12T23:03:47.642Z,4.50
2024-03-12T23:06:14.999Z,4.25
2024-03-12T23:11:08.783Z,3.53
2024-03-12T23:13:36.963Z,3.70
2024-03-12T23:16:03.943Z,3.00
2024-03-12T23:18:31.304Z,2.83
2024-03-12T23:23:25.115Z,3.40
2024-03-12T23:25:52.561Z,2.55
2024-03-12T23:28:22.304Z,2.78
2024-03-12T23:30:49.582Z,2.80
2024-03-12T23:33:16.453Z,3.28
2024-03-12T23:35:43.627Z,2.72
2024-03-12T23:38:12.704Z,2.58
2024-03-12T23:40:39.968Z,2.60
2024-03-12T23:43:06.873Z,2.50
2024-03-12T23:45:33.946Z,2.50
2024-03-12T23:48:03.370Z,2.47
2024-03-12T23:50:30.654Z,2.35
2024-03-12T23:52:57.693Z,2.45
2024-03-12T23:55:25.581Z,2.38
2024-03-12T23:57:54.349Z,2.38
